Buoy 46930

sailwx.info

Track history (hours):
 
Tides and Currents Weather Stations Pressure Air Temp Water Temp Dewpoint Dewpoint Depression Visibility Wind Speed Wind Dir Waves Ship Positions

Drifting buoy 46930

Last reported at 2014-Sep-30 18:00 UTC. Time now 2014-Sep-30 20:05 UTC.
Position N 22°25' W 117°57'.

Water temperature 24.4 ° C

Date/timePositionNaut miles runAvg speedWind from/ knotsBaromVisibWave heightAir tempDewpointWater temp
2014-Sep-30 18:00N 22°25' W 117°57'5 1.7 24.4
2014-Sep-30 15:00N 22°30' W 117°57'0 0.1 24.5
2014-Sep-30 13:00N 22°30' W 117°57'3 1.5 24.6
2014-Sep-30 11:00N 22°33' W 117°56'3 3.5 24.8
2014-Sep-30 10:00N 22°36' W 117°55'10 1.9 24.8
2014-Sep-30 05:00N 22°46' W 117°53'2 1.8 25.1
2014-Sep-30 04:00N 22°47' W 117°52'3 2.8 25.1
2014-Sep-30 03:00N 22°50' W 117°53'0 0.0 25.2
2014-Sep-30 02:00N 22°50' W 117°53'6 2.8 25.2
2014-Sep-30 00:00N 22°55' W 117°55'0 0.0 25.3
2014-Sep-29 23:00N 22°55' W 117°55'3 0.8 25.3
2014-Sep-29 20:00N 22°57' W 117°56'1 0.4 25.4
2014-Sep-29 17:00N 22°59' W 117°56'3 1.7 25.4
2014-Sep-29 15:00N 22°58' W 117°53'1 0.7 25.4
2014-Sep-29 13:00N 22°58' W 117°51'1 0.6 25.4
2014-Sep-29 12:00N 22°58' W 117°51'0 0.5 25.5
2014-Sep-29 11:00N 22°58' W 117°50'1 1.2 25.5
2014-Sep-29 10:00N 22°59' W 117°49'4 1.0 25.6
2014-Sep-29 06:00N 22°57' W 117°45'1 0.7 25.7
2014-Sep-29 04:00N 22°56' W 117°44'2 0.8 25.7
2014-Sep-29 02:00N 22°57' W 117°42'1 0.2 25.7
2014-Sep-28 23:00N 22°58' W 117°42'2 1.6 25.7
2014-Sep-28 22:00N 22°56' W 117°43'0 0.0 25.7
2014-Sep-28 21:00N 22°56' W 117°43'2 0.4 25.7
2014-Sep-28 17:00N 22°55' W 117°42'0 0.0 25.7
2014-Sep-28 16:00N 22°55' W 117°42'1 0.3 25.7
2014-Sep-28 13:00N 22°54' W 117°42'0 0.0 25.7
2014-Sep-28 12:00N 22°54' W 117°42'1 0.1 25.7
2014-Sep-28 07:00N 22°54' W 117°42'0 0.1 25.8
2014-Sep-28 05:00N 22°54' W 117°42'0 0.4 25.8
2014-Sep-28 04:00N 22°54' W 117°42'1 0.8 25.8
2014-Sep-28 03:00N 22°55' W 117°42'1 0.6 25.9
2014-Sep-28 01:00N 22°54' W 117°43'1 0.7 25.9
2014-Sep-28 00:00N 22°53' W 117°44'0 0.3 25.9
2014-Sep-27 23:00N 22°53' W 117°44'1 0.7 25.9
2014-Sep-27 21:00N 22°53' W 117°45'1 0.5 25.9
2014-Sep-27 19:00N 22°52' W 117°46'2 0.5 25.9
2014-Sep-27 16:00N 22°52' W 117°47'1 0.4 25.9
2014-Sep-27 14:00N 22°51' W 117°47'0 0.2 25.8
2014-Sep-27 13:00N 22°51' W 117°47'2 0.2 25.8
2014-Sep-27 06:00N 22°50' W 117°49'1 0.5 25.9
2014-Sep-27 05:00N 22°49' W 117°49'0 0.0 25.9
2014-Sep-27 04:00N 22°49' W 117°49'0 0.1 25.9
2014-Sep-27 02:00N 22°49' W 117°49'2 0.9 25.9
2014-Sep-27 00:00N 22°50' W 117°51'0 0.2 26.0
2014-Sep-26 23:00N 22°50' W 117°51'1 1.3 26.0
2014-Sep-26 22:00N 22°50' W 117°52'0 0.0 25.9
2014-Sep-26 21:00N 22°50' W 117°52'1 0.4 25.9
2014-Sep-26 18:00N 22°49' W 117°54'2 2.5 25.9
2014-Sep-26 17:00N 22°48' W 117°56'0 0.0 25.8
2014-Sep-26 16:00N 22°48' W 117°56'1 0.2 25.8
2014-Sep-26 13:00N 22°48' W 117°56'1 0.9 25.8
2014-Sep-26 12:00N 22°47' W 117°57'0 0.2 25.8
2014-Sep-26 11:00N 22°48' W 117°57'1 0.7 25.8
2014-Sep-26 10:00N 22°47' W 117°57'0 0.2 25.8
2014-Sep-26 08:00N 22°46' W 117°57'1 0.4 25.8
2014-Sep-26 06:00N 22°47' W 117°57'1 1.3 25.9
2014-Sep-26 05:00N 22°46' W 117°59'0 0.1 25.9
2014-Sep-26 03:00N 22°46' W 117°59'1 0.3 25.9
2014-Sep-26 01:00N 22°47' W 117°60'1 0.6 26.0
2014-Sep-25 23:00N 22°47' W 118°01'2 0.4 26.0
2014-Sep-25 19:00N 22°46' W 118°03'0 0.4 25.8
2014-Sep-25 18:00N 22°46' W 118°03'2 0.7 25.7
2014-Sep-25 15:00N 22°45' W 118°05'0 0.5 25.7
2014-Sep-25 14:00N 22°45' W 118°06'1 0.3 25.7
2014-Sep-25 12:00N 22°45' W 118°06'1 0.6 25.7
2014-Sep-25 10:00N 22°44' W 118°06'1 0.3 25.7
2014-Sep-25 08:00N 22°44' W 118°06'1 0.3 25.7
2014-Sep-25 05:00N 22°43' W 118°07'1 0.6 25.5
2014-Sep-25 04:00N 22°43' W 118°07'1 0.6 25.5
2014-Sep-25 03:00N 22°43' W 118°07'1 0.4 25.5
2014-Sep-25 01:00N 22°43' W 118°08'0 0.2 25.5
2014-Sep-24 23:00N 22°42' W 118°08'0 0.3 25.5
2014-Sep-24 22:00N 22°42' W 118°08'0 0.2 25.5
2014-Sep-24 20:00N 22°43' W 118°08'0 0.2 25.4
2014-Sep-24 19:00N 22°43' W 118°08'1 0.4 25.4
2014-Sep-24 17:00N 22°43' W 118°09'0 0.4 25.4
2014-Sep-24 16:00N 22°43' W 118°09'1 0.3 25.4
2014-Sep-24 14:00N 22°43' W 118°10'1 0.2 25.4
2014-Sep-24 10:00N 22°43' W 118°11'2 0.4 25.4
2014-Sep-24 05:00N 22°43' W 118°13'0 0.1 25.4
2014-Sep-24 02:00N 22°42' W 118°13'2 0.9 25.4
2014-Sep-24 00:00N 22°41' W 118°15'0 0.0 25.4
2014-Sep-23 23:00N 22°41' W 118°15'0 0.3 25.4
2014-Sep-23 22:00N 22°41' W 118°14'0 0.4 25.4
2014-Sep-23 21:00N 22°41' W 118°15'0 0.4 25.4
2014-Sep-23 20:00N 22°41' W 118°14'1 0.4 25.4
2014-Sep-23 18:00N 22°41' W 118°14'0 0.3 25.4
2014-Sep-23 17:00N 22°41' W 118°14'0 0.0 25.4
2014-Sep-23 16:00N 22°41' W 118°14'0 0.0 25.4
2014-Sep-23 14:00N 22°41' W 118°14'0 0.3 25.4
2014-Sep-23 13:00N 22°41' W 118°14'0 0.5 25.4
2014-Sep-23 12:00N 22°41' W 118°14'0 0.4 25.4
2014-Sep-23 11:00N 22°41' W 118°14'0 0.0 25.4
2014-Sep-23 10:00N 22°41' W 118°14'1 0.2 25.4
2014-Sep-23 05:00N 22°42' W 118°15'1 0.5 25.5
2014-Sep-23 04:00N 22°42' W 118°15'1 0.1 25.5
2014-Sep-23 00:00N 22°42' W 118°16'1 0.3 25.5
2014-Sep-22 22:00N 22°42' W 118°16'1 1.0 25.5
2014-Sep-22 21:00N 22°42' W 118°17'0 0.0 25.5
2014-Sep-22 20:00N 22°42' W 118°17'1 0.5 25.5
2014-Sep-22 18:00N 22°41' W 118°17'0 0.2 25.5
2014-Sep-22 16:00N 22°41' W 118°17'0 0.0 25.5
2014-Sep-22 14:00N 22°41' W 118°17'1 0.3 25.5
2014-Sep-22 12:00N 22°41' W 118°17'0 0.3 25.5
2014-Sep-22 11:00N 22°41' W 118°17'0 0.0 25.5
2014-Sep-22 08:00N 22°41' W 118°17'0 0.1 25.6
2014-Sep-22 04:00N 22°41' W 118°17'0 0.0 25.6
2014-Sep-22 03:00N 22°41' W 118°17'1 0.4 25.6
2014-Sep-22 01:00N 22°42' W 118°17'1 0.3 25.7
2014-Sep-21 23:00N 22°42' W 118°18'0 0.4 25.7
2014-Sep-21 22:00N 22°42' W 118°18'1 0.5 25.7
2014-Sep-21 20:00N 22°42' W 118°19'1 0.4 25.7
2014-Sep-21 18:00N 22°42' W 118°19'1 0.5 25.6
2014-Sep-21 17:00N 22°42' W 118°19'0 0.1 25.6
2014-Sep-21 16:00N 22°42' W 118°19'0 0.2 25.6
2014-Sep-21 15:00N 22°42' W 118°20'1 0.3 25.6
2014-Sep-21 13:00N 22°42' W 118°20'0 0.0 25.6
2014-Sep-21 12:00N 22°42' W 118°20'0 0.3 25.6
2014-Sep-21 11:00N 22°42' W 118°20'1 0.1 25.6
2014-Sep-21 06:00N 22°41' W 118°21'0 0.4 25.7
2014-Sep-21 05:00N 22°41' W 118°21'1 0.6 25.7
2014-Sep-21 04:00N 22°42' W 118°20'0 0.4 25.7
2014-Sep-21 03:00N 22°42' W 118°21'0 0.0 25.7
2014-Sep-21 02:00N 22°42' W 118°21'0 0.2 25.7
2014-Sep-21 01:00N 22°42' W 118°21'1 0.7 25.8
2014-Sep-21 00:00N 22°42' W 118°21'0 0.3 25.8
2014-Sep-20 23:00N 22°42' W 118°22'0 0.2 25.8
2014-Sep-20 22:00N 22°42' W 118°22'1 0.3 25.8
2014-Sep-20 20:00N 22°42' W 118°22'   25.7
Track history (hours):
 
Tides and Currents Weather Stations Pressure Air Temp Water Temp Dewpoint Dewpoint Depression Visibility Wind Speed Wind Dir Waves Ship Positions

Drifting buoy 46930

Last reported at 2014-Sep-30 18:00 UTC. Time now 2014-Sep-30 20:05 UTC.
Position N 22°25' W 117°57'.

Water temperature 24.4 ° C

Date/timePositionNaut miles runAvg speedWind from/ knotsBaromVisibWave heightAir tempDewpointWater temp
2014-Sep-30 18:00N 22°25' W 117°57'5 1.7 24.4
2014-Sep-30 15:00N 22°30' W 117°57'0 0.1 24.5
2014-Sep-30 13:00N 22°30' W 117°57'3 1.5 24.6
2014-Sep-30 11:00N 22°33' W 117°56'3 3.5 24.8
2014-Sep-30 10:00N 22°36' W 117°55'10 1.9 24.8
2014-Sep-30 05:00N 22°46' W 117°53'2 1.8 25.1
2014-Sep-30 04:00N 22°47' W 117°52'3 2.8 25.1
2014-Sep-30 03:00N 22°50' W 117°53'0 0.0 25.2
2014-Sep-30 02:00N 22°50' W 117°53'6 2.8 25.2
2014-Sep-30 00:00N 22°55' W 117°55'0 0.0 25.3
2014-Sep-29 23:00N 22°55' W 117°55'3 0.8 25.3
2014-Sep-29 20:00N 22°57' W 117°56'1 0.4 25.4
2014-Sep-29 17:00N 22°59' W 117°56'3 1.7 25.4
2014-Sep-29 15:00N 22°58' W 117°53'1 0.7 25.4
2014-Sep-29 13:00N 22°58' W 117°51'1 0.6 25.4
2014-Sep-29 12:00N 22°58' W 117°51'0 0.5 25.5
2014-Sep-29 11:00N 22°58' W 117°50'1 1.2 25.5
2014-Sep-29 10:00N 22°59' W 117°49'4 1.0 25.6
2014-Sep-29 06:00N 22°57' W 117°45'1 0.7 25.7
2014-Sep-29 04:00N 22°56' W 117°44'2 0.8 25.7
2014-Sep-29 02:00N 22°57' W 117°42'1 0.2 25.7
2014-Sep-28 23:00N 22°58' W 117°42'2 1.6 25.7
2014-Sep-28 22:00N 22°56' W 117°43'0 0.0 25.7
2014-Sep-28 21:00N 22°56' W 117°43'2 0.4 25.7
2014-Sep-28 17:00N 22°55' W 117°42'0 0.0 25.7
2014-Sep-28 16:00N 22°55' W 117°42'1 0.3 25.7
2014-Sep-28 13:00N 22°54' W 117°42'0 0.0 25.7
2014-Sep-28 12:00N 22°54' W 117°42'1 0.1 25.7
2014-Sep-28 07:00N 22°54' W 117°42'0 0.1 25.8
2014-Sep-28 05:00N 22°54' W 117°42'0 0.4 25.8
2014-Sep-28 04:00N 22°54' W 117°42'1 0.8 25.8
2014-Sep-28 03:00N 22°55' W 117°42'1 0.6 25.9
2014-Sep-28 01:00N 22°54' W 117°43'1 0.7 25.9
2014-Sep-28 00:00N 22°53' W 117°44'0 0.3 25.9
2014-Sep-27 23:00N 22°53' W 117°44'1 0.7 25.9
2014-Sep-27 21:00N 22°53' W 117°45'1 0.5 25.9
2014-Sep-27 19:00N 22°52' W 117°46'2 0.5 25.9
2014-Sep-27 16:00N 22°52' W 117°47'1 0.4 25.9
2014-Sep-27 14:00N 22°51' W 117°47'0 0.2 25.8
2014-Sep-27 13:00N 22°51' W 117°47'2 0.2 25.8
2014-Sep-27 06:00N 22°50' W 117°49'1 0.5 25.9
2014-Sep-27 05:00N 22°49' W 117°49'0 0.0 25.9
2014-Sep-27 04:00N 22°49' W 117°49'0 0.1 25.9
2014-Sep-27 02:00N 22°49' W 117°49'2 0.9 25.9
2014-Sep-27 00:00N 22°50' W 117°51'0 0.2 26.0
2014-Sep-26 23:00N 22°50' W 117°51'1 1.3 26.0
2014-Sep-26 22:00N 22°50' W 117°52'0 0.0 25.9
2014-Sep-26 21:00N 22°50' W 117°52'1 0.4 25.9
2014-Sep-26 18:00N 22°49' W 117°54'2 2.5 25.9
2014-Sep-26 17:00N 22°48' W 117°56'0 0.0 25.8
2014-Sep-26 16:00N 22°48' W 117°56'1 0.2 25.8
2014-Sep-26 13:00N 22°48' W 117°56'1 0.9 25.8
2014-Sep-26 12:00N 22°47' W 117°57'0 0.2 25.8
2014-Sep-26 11:00N 22°48' W 117°57'1 0.7 25.8
2014-Sep-26 10:00N 22°47' W 117°57'0 0.2 25.8
2014-Sep-26 08:00N 22°46' W 117°57'1 0.4 25.8
2014-Sep-26 06:00N 22°47' W 117°57'1 1.3 25.9
2014-Sep-26 05:00N 22°46' W 117°59'0 0.1 25.9
2014-Sep-26 03:00N 22°46' W 117°59'1 0.3 25.9
2014-Sep-26 01:00N 22°47' W 117°60'1 0.6 26.0
2014-Sep-25 23:00N 22°47' W 118°01'2 0.4 26.0
2014-Sep-25 19:00N 22°46' W 118°03'0 0.4 25.8
2014-Sep-25 18:00N 22°46' W 118°03'2 0.7 25.7
2014-Sep-25 15:00N 22°45' W 118°05'0 0.5 25.7
2014-Sep-25 14:00N 22°45' W 118°06'1 0.3 25.7
2014-Sep-25 12:00N 22°45' W 118°06'1 0.6 25.7
2014-Sep-25 10:00N 22°44' W 118°06'1 0.3 25.7
2014-Sep-25 08:00N 22°44' W 118°06'1 0.3 25.7
2014-Sep-25 05:00N 22°43' W 118°07'1 0.6 25.5
2014-Sep-25 04:00N 22°43' W 118°07'1 0.6 25.5
2014-Sep-25 03:00N 22°43' W 118°07'1 0.4 25.5
2014-Sep-25 01:00N 22°43' W 118°08'0 0.2 25.5
2014-Sep-24 23:00N 22°42' W 118°08'0 0.3 25.5
2014-Sep-24 22:00N 22°42' W 118°08'0 0.2 25.5
2014-Sep-24 20:00N 22°43' W 118°08'0 0.2 25.4
2014-Sep-24 19:00N 22°43' W 118°08'1 0.4 25.4
2014-Sep-24 17:00N 22°43' W 118°09'0 0.4 25.4
2014-Sep-24 16:00N 22°43' W 118°09'1 0.3 25.4
2014-Sep-24 14:00N 22°43' W 118°10'1 0.2 25.4
2014-Sep-24 10:00N 22°43' W 118°11'2 0.4 25.4
2014-Sep-24 05:00N 22°43' W 118°13'0 0.1 25.4
2014-Sep-24 02:00N 22°42' W 118°13'2 0.9 25.4
2014-Sep-24 00:00N 22°41' W 118°15'0 0.0 25.4
2014-Sep-23 23:00N 22°41' W 118°15'0 0.3 25.4
2014-Sep-23 22:00N 22°41' W 118°14'0 0.4 25.4
2014-Sep-23 21:00N 22°41' W 118°15'0 0.4 25.4
2014-Sep-23 20:00N 22°41' W 118°14'1 0.4 25.4
2014-Sep-23 18:00N 22°41' W 118°14'0 0.3 25.4
2014-Sep-23 17:00N 22°41' W 118°14'0 0.0 25.4
2014-Sep-23 16:00N 22°41' W 118°14'0 0.0 25.4
2014-Sep-23 14:00N 22°41' W 118°14'0 0.3 25.4
2014-Sep-23 13:00N 22°41' W 118°14'0 0.5 25.4
2014-Sep-23 12:00N 22°41' W 118°14'0 0.4 25.4
2014-Sep-23 11:00N 22°41' W 118°14'0 0.0 25.4
2014-Sep-23 10:00N 22°41' W 118°14'1 0.2 25.4
2014-Sep-23 05:00N 22°42' W 118°15'1 0.5 25.5
2014-Sep-23 04:00N 22°42' W 118°15'1 0.1 25.5
2014-Sep-23 00:00N 22°42' W 118°16'1 0.3 25.5
2014-Sep-22 22:00N 22°42' W 118°16'1 1.0 25.5
2014-Sep-22 21:00N 22°42' W 118°17'0 0.0 25.5
2014-Sep-22 20:00N 22°42' W 118°17'1 0.5 25.5
2014-Sep-22 18:00N 22°41' W 118°17'0 0.2 25.5
2014-Sep-22 16:00N 22°41' W 118°17'0 0.0 25.5
2014-Sep-22 14:00N 22°41' W 118°17'1 0.3 25.5
2014-Sep-22 12:00N 22°41' W 118°17'0 0.3 25.5
2014-Sep-22 11:00N 22°41' W 118°17'0 0.0 25.5
2014-Sep-22 08:00N 22°41' W 118°17'0 0.1 25.6
2014-Sep-22 04:00N 22°41' W 118°17'0 0.0 25.6
2014-Sep-22 03:00N 22°41' W 118°17'1 0.4 25.6
2014-Sep-22 01:00N 22°42' W 118°17'1 0.3 25.7
2014-Sep-21 23:00N 22°42' W 118°18'0 0.4 25.7
2014-Sep-21 22:00N 22°42' W 118°18'1 0.5 25.7
2014-Sep-21 20:00N 22°42' W 118°19'1 0.4 25.7
2014-Sep-21 18:00N 22°42' W 118°19'1 0.5 25.6
2014-Sep-21 17:00N 22°42' W 118°19'0 0.1 25.6
2014-Sep-21 16:00N 22°42' W 118°19'0 0.2 25.6
2014-Sep-21 15:00N 22°42' W 118°20'1 0.3 25.6
2014-Sep-21 13:00N 22°42' W 118°20'0 0.0 25.6
2014-Sep-21 12:00N 22°42' W 118°20'0 0.3 25.6
2014-Sep-21 11:00N 22°42' W 118°20'1 0.1 25.6
2014-Sep-21 06:00N 22°41' W 118°21'0 0.4 25.7
2014-Sep-21 05:00N 22°41' W 118°21'1 0.6 25.7
2014-Sep-21 04:00N 22°42' W 118°20'0 0.4 25.7
2014-Sep-21 03:00N 22°42' W 118°21'0 0.0 25.7
2014-Sep-21 02:00N 22°42' W 118°21'0 0.2 25.7
2014-Sep-21 01:00N 22°42' W 118°21'1 0.7 25.8
2014-Sep-21 00:00N 22°42' W 118°21'0 0.3 25.8
2014-Sep-20 23:00N 22°42' W 118°22'0 0.2 25.8
2014-Sep-20 22:00N 22°42' W 118°22'1 0.3 25.8
2014-Sep-20 20:00N 22°42' W 118°22'   25.7

Dump ship's entire track history